CYMA

Details ICAO CYMA (YMA)
Name MAYO
Region Canada
Timezone America/Whitehorse (UTC-7.0)
Plans Departing 7
Arriving 4
Stats Elevation 1,653 ft / 504 m (AMSL)
Location 63.616388° -135.868334°
Runways 1
Magnetic Variation 20.101° E
Sunrise 2018-05-27 11:20:35 UTC / 2018-05-27 04:20:35 Local
Sunset 2018-05-28 06:43:39 UTC / 2018-05-27 23:43:39 Local
Advertisement - Login to hide

Runways

ID Width Length Bearing (true) Bearing (mag) Surface Threshold Offset Overrun Length
06 100 ft / 30 m 4,839 ft / 1,475 m 89.71° 69.61° Gravel 0 ft / 0 m 0 ft / 0 m
24 100 ft / 30 m 4,839 ft / 1,475 m 269.74° 249.64° Gravel 0 ft / 0 m 0 ft / 0 m

Map

Weather


0- 5 10 15 20 25 30 35+ Temperature / ° C

Clouds and Precipitation
Forecast for 2018-05-27 12:00 UTC. Updated 5 hours ago

Ground ~20,000 ft ~40,000 ft Winds

METAR

CYMA 271600Z 04003KT 20SM SCT040TCU OVC060 08/05 A2963 RMK TCU4SC4 SLP051

TAF

TAF TAF CYMA 271138Z 2712/2724 01006KT P6SM BKN070 TEMPO 2712/2721 P6SM -SHRA BKN050 FM272100 33006KT P6SM BKN050 TEMPO 2721/2724 P6SM VCTS BKN050CB RMK NXT FCST BY 271800Z
Warning: Do not use this data for real-world aviation or navigation. No guarantee of current accuracy is given.